Time;durP1;ratioP1;P1;durP2;ratioP2;P2;SDS_P1;SDS_P2;PMS_P1;PMS_P2;Temp;Humidity;BMP_temperature;BMP_pressure;BME280_temperature;BME280_humidity;BME280_pressure;Samples;Min_cycle;Max_cycle;Signal;HPM_P1;HPM_P2
2021/01/02 00:02:24;;;;;;;27.97;11.10;;;2.60;86.30;;;;;;4962088;28;20686;-79
2021/01/02 00:05:09;;;;;;;20.13;9.30;;;2.60;86.30;;;;;;4968104;28;20264;-79
2021/01/02 00:07:57;;;;;;;18.13;11.23;;;2.60;86.30;;;;;;4949769;28;20305;-79
2021/01/02 00:10:27;;;;;;;20.20;11.10;;;2.60;86.20;;;;;;4953235;28;20186;-79
2021/01/02 00:13:12;;;;;;;23.67;13.03;;;2.50;86.70;;;;;;4979485;28;20200;-79
2021/01/02 00:16:04;;;;;;;27.23;14.13;;;2.50;87.10;;;;;;5006283;28;20548;-79
2021/01/02 00:18:48;;;;;;;36.43;16.80;;;2.50;87.60;;;;;;4994275;28;20165;-79
2021/01/02 00:21:16;;;;;;;31.43;15.77;;;2.50;88.50;;;;;;5010846;28;20176;-79
2021/01/02 00:24:04;;;;;;;32.63;15.50;;;2.50;88.80;;;;;;5013841;28;20279;-79
2021/01/02 00:26:32;;;;;;;34.37;15.87;;;2.50;88.40;;;;;;5021536;28;20259;-79
2021/01/02 00:29:00;;;;;;;33.57;15.90;;;2.50;88.90;;;;;;5025549;28;20205;-79
2021/01/02 00:31:32;;;;;;;27.57;14.33;;;2.40;89.10;;;;;;5003704;28;20189;-80
2021/01/02 00:34:22;;;;;;;37.77;14.47;;;2.40;88.80;;;;;;5024106;28;20234;-79
2021/01/02 00:37:18;;;;;;;29.83;14.20;;;2.30;88.20;;;;;;5019784;28;20233;-79
2021/01/02 00:39:58;;;;;;;28.90;14.93;;;2.30;88.80;;;;;;4961469;28;20309;-79
2021/01/02 00:42:25;;;;;;;35.23;14.97;;;2.20;88.90;;;;;;4951675;28;20182;-79
2021/01/02 00:44:57;;;;;;;30.43;14.67;;;2.20;88.90;;;;;;4968255;28;20683;-80
2021/01/02 00:47:26;;;;;;;38.47;15.23;;;2.20;88.80;;;;;;4970094;28;20290;-80
2021/01/02 00:49:55;;;;;;;34.70;16.00;;;2.20;89.30;;;;;;4968341;28;20193;-79
2021/01/02 00:52:37;;;;;;;27.07;14.00;;;2.10;89.20;;;;;;4964661;28;20576;-79
2021/01/02 00:55:32;;;;;;;33.87;14.13;;;2.10;89.20;;;;;;4969214;28;20793;-78
2021/01/02 00:58:22;;;;;;;26.37;14.07;;;2.10;89.30;;;;;;4946597;29;20190;-79
2021/01/02 01:01:04;;;;;;;29.60;13.40;;;2.10;89.60;;;;;;4930430;29;20188;-78
2021/01/02 01:03:41;;;;;;;23.57;13.07;;;2.10;89.60;;;;;;4945569;29;20606;-78
2021/01/02 01:06:11;;;;;;;23.00;13.43;;;2.10;89.40;;;;;;4929155;29;20191;-79
2021/01/02 01:08:43;;;;;;;30.50;14.60;;;2.10;89.80;;;;;;4929340;29;20204;-78
2021/01/02 01:11:11;;;;;;;21.83;13.37;;;2.00;89.40;;;;;;4930150;29;20196;-78
2021/01/02 01:13:37;;;;;;;26.57;14.43;;;2.00;89.40;;;;;;4930172;29;20223;-79
2021/01/02 01:16:04;;;;;;;34.77;14.13;;;2.00;89.40;;;;;;4936239;29;20223;-78
2021/01/02 01:18:42;;;;;;;28.83;14.03;;;2.00;89.50;;;;;;4948401;29;20660;-78
2021/01/02 01:21:09;;;;;;;32.23;13.50;;;2.00;89.70;;;;;;4932262;29;20230;-78
2021/01/02 01:23:53;;;;;;;31.93;14.83;;;2.00;89.90;;;;;;4948421;29;20215;-78
2021/01/02 01:26:27;;;;;;;26.17;13.60;;;1.90;89.70;;;;;;4933089;29;20202;-79
2021/01/02 01:28:58;;;;;;;23.40;11.67;;;1.90;90.10;;;;;;4932497;29;20960;-78
2021/01/02 01:31:29;;;;;;;27.63;12.27;;;1.90;90.20;;;;;;4947960;29;20191;-78
2021/01/02 01:34:00;;;;;;;19.70;13.17;;;2.00;90.10;;;;;;4951594;28;20607;-78
2021/01/02 01:36:34;;;;;;;26.47;12.90;;;1.90;90.10;;;;;;5003897;28;20207;-78
2021/01/02 01:39:04;;;;;;;24.40;12.07;;;1.90;89.90;;;;;;5007047;28;20267;-78
2021/01/02 01:41:35;;;;;;;25.00;11.90;;;1.90;89.80;;;;;;5016329;28;20181;-78
2021/01/02 01:44:10;;;;;;;21.00;11.63;;;1.80;89.80;;;;;;5005889;28;20194;-78
2021/01/02 01:47:03;;;;;;;20.93;11.83;;;1.80;89.90;;;;;;5007769;28;20681;-78
2021/01/02 01:49:31;;;;;;;21.53;11.90;;;1.80;89.70;;;;;;5014567;28;20192;-78
2021/01/02 01:52:00;;;;;;;18.30;12.07;;;1.80;89.80;;;;;;5020620;28;20247;-80
2021/01/02 01:54:29;;;;;;;18.17;11.67;;;1.80;90.30;;;;;;5020638;28;20189;-77
2021/01/02 01:57:03;;;;;;;29.10;13.00;;;1.80;90.10;;;;;;5019759;28;20213;-77
2021/01/02 02:00:02;;;;;;;20.13;11.43;;;1.80;90.30;;;;;;5002639;28;20172;-77
2021/01/02 02:02:48;;;;;;;21.57;12.03;;;1.80;90.30;;;;;;4962309;28;20195;-77
2021/01/02 02:05:17;;;;;;;22.20;11.90;;;1.80;90.40;;;;;;4909720;29;20945;-77
2021/01/02 02:08:05;;;;;;;25.77;11.77;;;1.70;90.40;;;;;;4906040;29;20235;-78
2021/01/02 02:10:36;;;;;;;19.67;10.60;;;1.70;90.30;;;;;;4905727;29;20982;-78
2021/01/02 02:13:32;;;;;;;25.13;11.43;;;1.70;90.40;;;;;;4906662;29;20196;-77
2021/01/02 02:15:59;;;;;;;22.17;9.67;;;1.70;90.10;;;;;;4898872;29;20361;-78
2021/01/02 02:18:28;;;;;;;18.93;9.80;;;1.70;90.50;;;;;;4906544;29;20260;-80
2021/01/02 02:20:56;;;;;;;20.57;11.93;;;1.70;90.40;;;;;;4905950;29;20204;-77
2021/01/02 02:23:26;;;;;;;19.93;10.03;;;1.70;90.30;;;;;;4921617;29;20195;-80
2021/01/02 02:25:59;;;;;;;18.00;9.37;;;1.70;90.20;;;;;;4906835;29;20687;-79
2021/01/02 02:28:42;;;;;;;15.17;8.40;;;1.60;90.30;;;;;;4918541;29;20282;-78
2021/01/02 02:31:08;;;;;;;15.60;8.37;;;1.60;90.50;;;;;;4893792;29;20188;-78
2021/01/02 02:33:40;;;;;;;13.47;8.03;;;1.60;90.30;;;;;;4907348;29;20215;-78
2021/01/02 02:36:06;;;;;;;17.47;8.70;;;1.60;90.10;;;;;;4908634;29;20724;-78
2021/01/02 02:38:36;;;;;;;18.60;9.00;;;1.50;90.00;;;;;;4911416;28;20192;-79
2021/01/02 02:41:04;;;;;;;16.37;8.70;;;1.50;89.90;;;;;;4965995;28;20548;-78
2021/01/02 02:43:31;;;;;;;20.10;9.90;;;1.50;89.90;;;;;;5014610;28;20276;-78
2021/01/02 02:45:58;;;;;;;15.07;8.07;;;1.40;89.80;;;;;;5008009;28;20189;-79
2021/01/02 02:48:25;;;;;;;13.50;8.67;;;1.40;89.80;;;;;;5023603;28;20188;-78
2021/01/02 02:50:53;;;;;;;17.83;8.80;;;1.40;89.80;;;;;;5008424;28;20191;-78
2021/01/02 02:53:20;;;;;;;18.60;9.73;;;1.40;89.80;;;;;;5008261;28;21049;-78
2021/01/02 02:55:46;;;;;;;20.37;10.60;;;1.40;89.80;;;;;;5006698;28;20250;-78
2021/01/02 02:58:12;;;;;;;19.97;10.73;;;1.40;89.90;;;;;;5026167;28;20196;-78
2021/01/02 03:00:38;;;;;;;29.87;13.27;;;1.40;90.00;;;;;;5026460;28;20276;-78
2021/01/02 03:03:08;;;;;;;23.07;12.43;;;1.40;90.10;;;;;;5006937;28;20211;-78
2021/01/02 03:05:34;;;;;;;26.90;14.23;;;1.40;90.20;;;;;;5008411;28;20200;-78
2021/01/02 03:08:01;;;;;;;30.87;13.60;;;1.40;90.40;;;;;;5022630;28;20200;-78
2021/01/02 03:10:26;;;;;;;30.67;13.37;;;1.40;90.30;;;;;;5011773;28;20699;-77
2021/01/02 03:12:53;;;;;;;28.93;13.00;;;1.40;90.50;;;;;;5011381;28;20181;-78
2021/01/02 03:15:26;;;;;;;25.80;13.97;;;1.40;90.80;;;;;;5026807;28;20201;-78
2021/01/02 03:17:53;;;;;;;25.07;13.47;;;1.40;91.30;;;;;;5012622;28;20166;-78
2021/01/02 03:20:20;;;;;;;26.63;13.53;;;1.40;91.20;;;;;;5008755;28;20186;-79
2021/01/02 03:22:47;;;;;;;21.27;12.37;;;1.30;91.20;;;;;;5003945;28;20191;-79
2021/01/02 03:25:14;;;;;;;28.17;13.23;;;1.30;91.40;;;;;;5011179;28;20188;-79
2021/01/02 03:27:41;;;;;;;28.30;12.83;;;1.30;91.40;;;;;;5000172;28;20781;-79
2021/01/02 03:30:10;;;;;;;19.40;10.87;;;1.30;91.30;;;;;;4991483;28;20248;-80
2021/01/02 03:32:36;;;;;;;22.00;12.00;;;1.20;91.40;;;;;;5029646;28;20584;-79
2021/01/02 03:35:07;;;;;;;23.03;12.13;;;1.20;91.30;;;;;;5041624;28;20216;-79
2021/01/02 03:37:34;;;;;;;21.87;11.50;;;1.20;91.10;;;;;;5026541;28;20181;-79
2021/01/02 03:40:00;;;;;;;21.73;10.73;;;1.20;91.20;;;;;;5009940;28;20571;-79
2021/01/02 03:42:25;;;;;;;28.63;12.17;;;1.20;91.30;;;;;;5011394;28;20946;-79
2021/01/02 03:44:51;;;;;;;22.33;12.60;;;1.20;91.30;;;;;;5027311;28;20196;-79
2021/01/02 03:47:17;;;;;;;25.77;12.70;;;1.10;91.20;;;;;;5002703;28;20181;-79
2021/01/02 03:49:44;;;;;;;23.13;11.47;;;1.10;91.60;;;;;;5011372;28;20259;-78
2021/01/02 03:52:10;;;;;;;19.93;12.33;;;1.10;91.70;;;;;;5025147;28;20185;-78
2021/01/02 03:54:36;;;;;;;21.43;11.37;;;1.10;91.60;;;;;;5010378;28;20185;-78
2021/01/02 03:57:02;;;;;;;21.73;11.27;;;1.10;91.70;;;;;;5021012;28;20268;-79
2021/01/02 03:59:28;;;;;;;19.20;10.00;;;1.10;91.70;;;;;;4997003;28;20689;-80
2021/01/02 04:01:58;;;;;;;24.80;12.87;;;1.10;91.60;;;;;;5013933;28;20185;-78
2021/01/02 04:04:24;;;;;;;25.33;11.33;;;1.10;91.80;;;;;;5025419;28;20895;-78
2021/01/02 04:06:53;;;;;;;21.77;12.07;;;1.00;91.50;;;;;;5026795;28;20188;-78
2021/01/02 04:09:20;;;;;;;28.07;12.23;;;1.00;91.60;;;;;;5010008;28;20181;-78
2021/01/02 04:11:47;;;;;;;21.03;11.23;;;1.00;91.80;;;;;;5011640;28;20596;-78
2021/01/02 04:14:13;;;;;;;20.17;11.10;;;1.00;91.80;;;;;;5011212;28;20243;-78
2021/01/02 04:16:40;;;;;;;25.23;12.13;;;1.00;91.80;;;;;;5026118;28;20265;-78
2021/01/02 04:19:07;;;;;;;21.80;11.40;;;1.00;91.80;;;;;;5012489;28;20240;-78
2021/01/02 04:21:37;;;;;;;20.50;12.00;;;1.00;91.90;;;;;;5026568;28;20235;-78
2021/01/02 04:24:05;;;;;;;20.63;10.10;;;0.90;92.20;;;;;;5027014;28;20192;-78
2021/01/02 04:26:30;;;;;;;21.27;10.83;;;0.90;92.00;;;;;;5011805;28;20566;-78
2021/01/02 04:28:57;;;;;;;20.33;10.47;;;0.90;92.00;;;;;;5011341;28;20196;-79
2021/01/02 04:31:36;;;;;;;19.60;9.07;;;0.90;92.20;;;;;;5011287;28;20299;-79
2021/01/02 04:34:06;;;;;;;17.77;9.87;;;0.90;92.00;;;;;;5020728;28;20176;-78
2021/01/02 04:36:32;;;;;;;21.57;9.70;;;0.90;92.10;;;;;;5042333;28;20216;-78
2021/01/02 04:38:58;;;;;;;24.93;9.90;;;0.90;92.00;;;;;;5011069;28;20177;-78
2021/01/02 04:41:24;;;;;;;17.13;9.97;;;0.90;92.10;;;;;;5026832;28;20185;-79
2021/01/02 04:43:51;;;;;;;16.07;9.07;;;0.80;92.00;;;;;;5026437;28;20187;-78
2021/01/02 04:46:18;;;;;;;25.37;10.67;;;0.80;91.80;;;;;;5026252;28;20185;-79
2021/01/02 04:48:46;;;;;;;16.80;10.17;;;0.80;91.70;;;;;;5009201;28;20185;-79
2021/01/02 04:51:17;;;;;;;18.23;9.47;;;0.80;91.70;;;;;;5009348;28;20216;-79
2021/01/02 04:53:44;;;;;;;17.17;10.53;;;0.80;91.90;;;;;;5010976;28;20167;-79
2021/01/02 04:56:10;;;;;;;25.63;10.77;;;0.80;92.00;;;;;;4998306;28;20205;-79
2021/01/02 04:58:43;;;;;;;21.03;11.13;;;0.80;92.30;;;;;;5026284;28;20188;-78
2021/01/02 05:01:15;;;;;;;19.50;11.60;;;0.80;92.40;;;;;;5010654;28;20231;-79
2021/01/02 05:03:44;;;;;;;22.27;11.60;;;0.80;92.30;;;;;;5011081;28;20184;-80
2021/01/02 05:06:10;;;;;;;26.97;11.27;;;0.70;92.40;;;;;;5010976;28;20268;-78
2021/01/02 05:08:37;;;;;;;19.33;10.57;;;0.70;92.40;;;;;;5025878;28;20189;-79
2021/01/02 05:11:04;;;;;;;23.30;10.63;;;0.70;92.50;;;;;;5010175;28;20657;-80
2021/01/02 05:13:33;;;;;;;26.23;12.20;;;0.70;92.40;;;;;;5009140;28;20185;-78
2021/01/02 05:16:21;;;;;;;28.60;11.23;;;0.70;92.10;;;;;;5025752;28;20205;-78
2021/01/02 05:19:01;;;;;;;22.13;9.63;;;0.70;92.10;;;;;;5025795;28;20173;-79
2021/01/02 05:21:28;;;;;;;18.60;9.50;;;0.70;92.00;;;;;;5009963;28;20177;-78
2021/01/02 05:24:07;;;;;;;18.30;10.00;;;0.70;92.20;;;;;;5008800;28;20575;-78
2021/01/02 05:26:35;;;;;;;21.17;11.30;;;0.60;92.20;;;;;;5025264;28;20614;-78
2021/01/02 05:29:23;;;;;;;21.77;10.57;;;0.60;92.20;;;;;;5008793;28;20693;-79
2021/01/02 05:31:51;;;;;;;17.90;9.07;;;0.60;92.10;;;;;;5010152;28;20234;-78
2021/01/02 05:34:19;;;;;;;19.90;10.83;;;0.60;92.10;;;;;;5009149;28;20680;-78
2021/01/02 05:36:45;;;;;;;19.57;9.87;;;0.60;92.00;;;;;;5024961;28;20212;-78
2021/01/02 05:39:16;;;;;;;17.53;10.13;;;0.60;92.00;;;;;;5009889;28;20181;-78
2021/01/02 05:41:55;;;;;;;19.17;10.53;;;0.60;92.00;;;;;;4995257;28;20165;-78
2021/01/02 05:44:22;;;;;;;15.97;9.50;;;0.50;91.90;;;;;;4995299;28;20265;-78
2021/01/02 05:46:53;;;;;;;21.37;11.13;;;0.50;92.20;;;;;;4998263;28;20185;-78
2021/01/02 05:49:33;;;;;;;22.73;10.00;;;0.50;92.30;;;;;;5023253;28;20173;-79
2021/01/02 05:52:01;;;;;;;23.20;9.97;;;0.50;91.90;;;;;;5008958;28;20292;-79
2021/01/02 05:54:31;;;;;;;15.43;9.37;;;0.50;92.20;;;;;;5009533;28;20185;-79
2021/01/02 05:57:00;;;;;;;22.83;10.60;;;0.40;92.20;;;;;;5009183;28;20696;-79
2021/01/02 05:59:27;;;;;;;22.20;10.80;;;0.40;92.30;;;;;;5007567;28;20180;-79
2021/01/02 06:01:53;;;;;;;17.40;10.97;;;0.40;92.30;;;;;;5004794;28;20320;-79
2021/01/02 06:04:19;;;;;;;19.37;9.67;;;0.40;92.50;;;;;;5020681;28;20177;-79
2021/01/02 06:06:45;;;;;;;29.20;11.53;;;0.40;92.50;;;;;;5007769;28;20188;-79
2021/01/02 06:09:12;;;;;;;19.77;10.10;;;0.40;92.70;;;;;;5006412;28;20272;-80
2021/01/02 06:11:42;;;;;;;20.57;10.70;;;0.40;92.80;;;;;;5002084;28;20188;-79
2021/01/02 06:14:09;;;;;;;21.23;11.43;;;0.40;93.10;;;;;;5004872;28;20185;-79
2021/01/02 06:16:42;;;;;;;22.77;11.20;;;0.40;93.20;;;;;;5006070;28;20220;-79
2021/01/02 06:19:08;;;;;;;16.90;10.17;;;0.40;93.20;;;;;;5008263;28;20712;-80
2021/01/02 06:21:34;;;;;;;25.70;10.37;;;0.40;93.20;;;;;;5021347;28;20188;-79
2021/01/02 06:24:01;;;;;;;27.43;11.37;;;0.40;93.30;;;;;;5008122;28;20173;-78
2021/01/02 06:26:27;;;;;;;25.27;11.13;;;0.50;93.40;;;;;;5008012;28;20191;-79
2021/01/02 06:28:53;;;;;;;21.97;10.87;;;0.50;93.40;;;;;;5007732;28;20205;-78
2021/01/02 06:31:19;;;;;;;25.63;12.17;;;0.60;93.60;;;;;;5005458;28;20663;-79
2021/01/02 06:33:54;;;;;;;20.83;12.57;;;0.70;93.80;;;;;;5007252;28;20209;-79
2021/01/02 06:36:36;;;;;;;24.10;11.57;;;0.90;93.90;;;;;;5006817;28;20204;-79
2021/01/02 06:39:22;;;;;;;20.00;10.77;;;1.20;93.80;;;;;;5023826;28;20185;-79
2021/01/02 06:41:50;;;;;;;18.70;11.17;;;1.50;93.50;;;;;;5010729;28;20184;-79
2021/01/02 06:44:39;;;;;;;20.03;11.13;;;1.80;93.30;;;;;;5015134;28;20285;-79
2021/01/02 06:47:17;;;;;;;24.17;12.93;;;2.20;93.00;;;;;;5027027;28;20180;-80
2021/01/02 06:49:43;;;;;;;19.60;11.20;;;2.60;93.20;;;;;;5022818;28;20184;-80
2021/01/02 06:52:10;;;;;;;20.07;11.93;;;3.00;91.80;;;;;;5019412;28;20228;-79
2021/01/02 06:54:39;;;;;;;25.97;12.60;;;3.40;90.90;;;;;;5008929;28;20565;-80
2021/01/02 06:57:06;;;;;;;28.27;13.53;;;3.80;90.70;;;;;;5013045;28;20212;-79
2021/01/02 06:59:33;;;;;;;21.20;11.40;;;4.20;89.30;;;;;;5010688;28;20326;-78
2021/01/02 07:01:59;;;;;;;30.27;14.57;;;4.60;87.60;;;;;;5023791;28;20187;-80
2021/01/02 07:04:35;;;;;;;28.10;12.20;;;5.10;88.20;;;;;;5014625;28;20578;-74
2021/01/02 07:07:02;;;;;;;29.57;14.07;;;5.60;86.50;;;;;;5002461;28;20173;-72
2021/01/02 07:09:28;;;;;;;24.47;14.77;;;6.10;85.30;;;;;;4996296;28;20182;-72
2021/01/02 07:12:14;;;;;;;28.47;13.40;;;6.60;84.80;;;;;;5001202;28;20444;-72
2021/01/02 07:14:41;;;;;;;25.53;14.67;;;7.10;82.30;;;;;;5002861;28;20845;-72
2021/01/02 07:17:12;;;;;;;25.63;12.80;;;7.60;81.10;;;;;;5003229;28;20193;-72
2021/01/02 07:19:48;;;;;;;23.43;14.17;;;8.00;79.70;;;;;;5003533;28;20204;-72
2021/01/02 07:22:20;;;;;;;25.20;14.00;;;8.40;76.50;;;;;;5004994;28;20180;-72
2021/01/02 07:24:58;;;;;;;25.03;15.07;;;8.60;74.30;;;;;;5003827;28;20179;-71
2021/01/02 07:27:28;;;;;;;27.47;15.47;;;8.60;73.20;;;;;;5000467;28;20178;-72
2021/01/02 07:30:11;;;;;;;26.07;13.93;;;8.70;73.60;;;;;;4992216;28;20263;-72
2021/01/02 07:32:42;;;;;;;24.43;13.47;;;8.90;72.60;;;;;;5003866;28;20709;-72
2021/01/02 07:35:12;;;;;;;27.43;14.17;;;9.20;72.40;;;;;;5011881;28;20762;-72
2021/01/02 07:37:39;;;;;;;20.30;12.90;;;9.60;71.60;;;;;;5006536;28;20181;-72
2021/01/02 07:40:09;;;;;;;24.47;13.37;;;9.70;70.70;;;;;;5020163;28;20174;-72
2021/01/02 07:42:40;;;;;;;20.63;12.87;;;9.60;70.80;;;;;;5009399;28;21153;-73
2021/01/02 07:45:09;;;;;;;23.10;13.93;;;9.50;69.50;;;;;;5025061;28;20203;-72
2021/01/02 07:47:46;;;;;;;24.50;13.73;;;9.50;70.60;;;;;;5003663;28;20712;-72
2021/01/02 07:50:15;;;;;;;21.90;13.03;;;9.30;70.50;;;;;;5007488;28;20198;-72
2021/01/02 07:53:00;;;;;;;21.27;12.30;;;9.40;70.90;;;;;;5008712;28;20728;-73
2021/01/02 07:55:31;;;;;;;17.27;11.50;;;9.60;69.80;;;;;;5013125;28;20973;-73
2021/01/02 07:57:57;;;;;;;25.30;13.90;;;9.70;69.70;;;;;;5021010;28;20226;-73
2021/01/02 08:00:23;;;;;;;20.40;13.33;;;10.00;69.90;;;;;;5017131;28;20194;-73
2021/01/02 08:02:49;;;;;;;22.60;13.47;;;10.40;68.90;;;;;;5015302;28;20189;-73
2021/01/02 08:05:19;;;;;;;19.90;12.68;;;10.90;67.80;;;;;;5005422;28;20186;-73
2021/01/02 08:07:55;;;;;;;20.23;12.23;;;11.50;67.50;;;;;;4996940;28;20252;-73
2021/01/02 08:10:21;;;;;;;20.30;11.98;;;12.00;65.40;;;;;;5014234;28;20588;-72
2021/01/02 08:12:49;;;;;;;18.30;12.98;;;12.50;65.20;;;;;;5012008;28;20184;-72
2021/01/02 08:15:24;;;;;;;17.65;11.27;;;12.80;64.10;;;;;;5026921;28;20200;-72
2021/01/02 08:17:50;;;;;;;21.90;12.25;;;12.90;64.40;;;;;;5013169;28;20580;-77
2021/01/02 08:20:17;;;;;;;19.48;12.63;;;13.00;63.60;;;;;;5009518;28;20169;-77
2021/01/02 08:22:43;;;;;;;20.17;12.55;;;13.00;62.70;;;;;;5008515;28;20195;-72
2021/01/02 08:25:14;;;;;;;26.30;13.40;;;13.30;62.90;;;;;;5001372;28;20173;-72
2021/01/02 08:27:40;;;;;;;18.38;12.18;;;13.30;62.00;;;;;;5005289;28;20875;-72
2021/01/02 08:30:09;;;;;;;17.02;11.98;;;13.30;62.30;;;;;;5002819;28;20259;-73
2021/01/02 08:32:37;;;;;;;18.70;11.43;;;13.40;62.50;;;;;;5005672;28;20196;-72
2021/01/02 08:35:16;;;;;;;18.85;11.65;;;13.60;62.30;;;;;;4998421;28;20601;-72
2021/01/02 08:37:42;;;;;;;17.70;10.90;;;13.90;61.60;;;;;;5010742;28;20185;-74
2021/01/02 08:40:10;;;;;;;19.00;11.05;;;14.10;61.10;;;;;;5011649;28;20374;-74
2021/01/02 08:42:41;;;;;;;17.17;11.27;;;14.50;61.30;;;;;;5010797;28;20184;-75
2021/01/02 08:45:08;;;;;;;13.77;10.02;;;15.00;59.80;;;;;;5009567;28;20184;-75
2021/01/02 08:47:36;;;;;;;11.00;8.40;;;15.50;59.40;;;;;;5002031;28;20188;-74
2021/01/02 08:50:13;;;;;;;14.70;9.60;;;16.10;58.00;;;;;;5009992;28;20612;-74
2021/01/02 08:52:39;;;;;;;13.43;9.48;;;16.60;57.20;;;;;;5007643;28;20208;-78
2021/01/02 08:55:16;;;;;;;12.23;8.63;;;17.00;56.90;;;;;;5001249;28;20216;-74
2021/01/02 08:57:49;;;;;;;10.57;8.38;;;17.40;56.20;;;;;;5003587;28;20187;-75
2021/01/02 09:00:16;;;;;;;11.00;8.30;;;17.80;56.60;;;;;;5006118;28;20835;-74
2021/01/02 09:02:49;;;;;;;11.55;8.70;;;18.00;54.50;;;;;;5017740;28;20858;-74
2021/01/02 09:05:31;;;;;;;12.35;9.07;;;18.40;54.10;;;;;;4999367;28;20223;-76
2021/01/02 09:08:00;;;;;;;9.27;8.38;;;18.50;53.60;;;;;;5004638;28;20177;-76
2021/01/02 09:10:30;;;;;;;10.02;8.20;;;18.60;55.20;;;;;;5006719;28;20177;-76
2021/01/02 09:13:09;;;;;;;13.50;9.30;;;18.70;53.40;;;;;;5006138;28;20328;-73
2021/01/02 09:15:41;;;;;;;12.05;9.23;;;18.80;52.50;;;;;;5013861;28;20235;-73
2021/01/02 09:18:06;;;;;;;10.20;8.70;;;19.00;52.30;;;;;;5015313;28;20181;-72
2021/01/02 09:20:32;;;;;;;11.63;8.98;;;19.30;53.90;;;;;;5006952;28;20176;-72
2021/01/02 09:22:59;;;;;;;11.60;8.07;;;19.40;53.40;;;;;;5009206;28;20205;-73
2021/01/02 09:25:28;;;;;;;8.73;7.57;;;19.20;52.00;;;;;;5002626;28;20189;-73
2021/01/02 09:27:55;;;;;;;7.93;7.00;;;18.90;53.60;;;;;;5004069;28;20189;-73
2021/01/02 09:30:21;;;;;;;9.43;7.40;;;18.70;53.60;;;;;;5003369;28;20987;-74
2021/01/02 09:32:47;;;;;;;8.07;7.28;;;18.80;53.20;;;;;;5013998;28;20191;-74
2021/01/02 09:35:15;;;;;;;11.52;8.00;;;19.00;52.10;;;;;;5007483;28;20185;-86
2021/01/02 09:37:42;;;;;;;10.98;7.65;;;19.40;53.60;;;;;;5016006;28;20184;-75
2021/01/02 09:40:19;;;;;;;10.77;6.63;;;19.80;52.30;;;;;;5008030;28;20216;-77
2021/01/02 09:42:45;;;;;;;9.88;7.03;;;20.10;50.50;;;;;;5012159;28;20179;-74
2021/01/02 09:45:11;;;;;;;10.95;7.78;;;20.30;50.80;;;;;;5004941;28;20208;-82
2021/01/02 09:47:37;;;;;;;14.15;8.07;;;20.20;50.80;;;;;;5006941;28;20188;-76
2021/01/02 09:50:04;;;;;;;9.65;7.70;;;20.10;52.00;;;;;;5012217;28;20214;-75
2021/01/02 09:52:30;;;;;;;10.52;8.13;;;19.90;52.30;;;;;;5006505;28;20181;-89
2021/01/02 09:54:55;;;;;;;10.18;8.02;;;20.10;51.90;;;;;;5014761;28;20192;-77
2021/01/02 09:57:21;;;;;;;8.20;7.38;;;20.20;49.50;;;;;;5005488;28;20239;-77
2021/01/02 09:59:47;;;;;;;11.90;8.00;;;20.70;49.70;;;;;;4997338;28;20247;-73
2021/01/02 10:02:13;;;;;;;8.40;7.15;;;21.10;48.50;;;;;;5004597;28;20207;-74
2021/01/02 10:04:43;;;;;;;11.23;7.55;;;21.30;51.10;;;;;;5002607;28;20188;-75
2021/01/02 10:07:09;;;;;;;11.02;7.72;;;21.40;49.50;;;;;;4999185;28;20197;-75
2021/01/02 10:09:42;;;;;;;11.77;8.27;;;21.30;49.60;;;;;;5002450;28;20185;-74
2021/01/02 10:12:09;;;;;;;11.48;8.07;;;21.00;49.80;;;;;;5004717;28;20181;-74
2021/01/02 10:14:36;;;;;;;9.13;8.18;;;21.00;50.30;;;;;;4997660;28;20187;-75
2021/01/02 10:17:03;;;;;;;10.98;8.23;;;21.00;49.80;;;;;;5002784;28;20204;-75
2021/01/02 10:19:30;;;;;;;11.73;9.15;;;21.30;50.50;;;;;;4994315;28;20184;-75
2021/01/02 10:21:57;;;;;;;10.40;8.93;;;21.30;48.80;;;;;;4996429;28;20263;-77
2021/01/02 10:24:23;;;;;;;12.10;9.23;;;21.50;49.40;;;;;;4989893;28;20185;-76
2021/01/02 10:26:48;;;;;;;11.93;9.07;;;21.90;49.40;;;;;;5003168;28;20192;-76
2021/01/02 10:29:14;;;;;;;12.35;9.35;;;22.20;48.00;;;;;;4999114;28;20194;-76
2021/01/02 10:31:40;;;;;;;11.40;9.25;;;22.40;49.20;;;;;;5006342;28;20220;-76
2021/01/02 10:34:06;;;;;;;12.73;9.40;;;22.50;47.30;;;;;;5005218;28;20192;-76
2021/01/02 10:36:32;;;;;;;12.43;9.35;;;22.90;48.20;;;;;;5002846;28;20895;-77
2021/01/02 10:38:57;;;;;;;11.05;9.63;;;23.20;47.70;;;;;;5007638;28;20247;-75
2021/01/02 10:41:23;;;;;;;16.63;9.20;;;23.50;48.40;;;;;;5006078;28;20627;-75
2021/01/02 10:43:49;;;;;;;10.93;9.13;;;23.80;48.10;;;;;;5004774;28;20169;-76
2021/01/02 10:46:15;;;;;;;11.75;8.65;;;24.00;46.90;;;;;;5004267;28;20211;-77
2021/01/02 10:48:41;;;;;;;10.38;9.32;;;24.20;47.00;;;;;;5001879;28;20280;-77
2021/01/02 10:51:14;;;;;;;14.82;9.90;;;24.40;45.30;;;;;;5003630;28;20196;-76
2021/01/02 10:53:40;;;;;;;9.57;8.57;;;24.40;46.30;;;;;;5003465;28;20179;-75
2021/01/02 10:56:15;;;;;;;8.20;7.38;;;24.50;44.80;;;;;;5003555;28;20693;-79
2021/01/02 10:58:40;;;;;;;10.07;7.60;;;24.50;46.50;;;;;;5003144;28;20257;-76
2021/01/02 11:01:11;;;;;;;7.95;7.18;;;24.80;45.10;;;;;;5010544;28;20733;-75
2021/01/02 11:03:37;;;;;;;7.68;6.95;;;25.00;46.30;;;;;;5013070;28;20168;-83
2021/01/02 11:06:18;;;;;;;13.45;7.32;;;25.20;47.10;;;;;;5027512;28;20234;-91
2021/01/02 11:08:46;;;;;;;7.57;6.88;;;25.30;44.40;;;;;;5030814;28;20540;-86
2021/01/02 11:11:20;;;;;;;7.97;7.13;;;25.30;46.60;;;;;;5017930;28;20183;-80
2021/01/02 11:13:46;;;;;;;7.10;6.40;;;25.30;44.80;;;;;;5031466;28;20191;-82
2021/01/02 11:16:12;;;;;;;6.95;6.13;;;25.20;46.70;;;;;;5028047;28;20216;-82
2021/01/02 11:18:37;;;;;;;6.55;6.05;;;25.20;45.50;;;;;;5042210;28;20176;-89
2021/01/02 11:21:18;;;;;;;7.25;5.78;;;25.10;45.40;;;;;;5032130;28;20645;-94
2021/01/02 11:23:44;;;;;;;7.15;6.05;;;25.00;47.00;;;;;;5015369;28;20189;-95
2021/01/02 11:26:10;;;;;;;6.60;5.50;;;25.00;46.70;;;;;;4999006;28;20212;-96
2021/01/02 11:28:39;;;;;;;5.20;4.85;;;25.00;45.10;;;;;;4999898;28;20188;-96
2021/01/02 11:31:10;;;;;;;4.80;4.50;;;24.90;44.60;;;;;;5000708;28;20194;-95
2021/01/02 11:33:36;;;;;;;5.05;4.70;;;24.80;48.00;;;;;;5000055;28;20174;-94
2021/01/02 11:36:05;;;;;;;5.65;5.15;;;24.40;46.60;;;;;;5000226;28;20348;-95
2021/01/02 11:38:31;;;;;;;5.35;4.82;;;24.30;47.20;;;;;;4999117;28;20198;-95
2021/01/02 11:40:57;;;;;;;4.47;4.18;;;24.10;46.30;;;;;;5005912;28;20201;-95
2021/01/02 11:43:22;;;;;;;3.50;3.30;;;24.20;47.60;;;;;;5012712;28;20174;-95
2021/01/02 11:45:51;;;;;;;4.00;3.65;;;24.30;45.60;;;;;;5013044;28;20246;-96
2021/01/02 11:48:17;;;;;;;4.55;4.07;;;24.20;46.20;;;;;;5015208;28;20190;-95
2021/01/02 11:50:46;;;;;;;4.57;4.18;;;24.30;48.70;;;;;;5004031;28;20181;-94
2021/01/02 11:53:13;;;;;;;3.83;3.53;;;24.50;47.20;;;;;;5004168;28;20174;-95
2021/01/02 11:55:40;;;;;;;3.97;3.72;;;24.20;46.30;;;;;;5006869;28;20201;-94
2021/01/02 11:58:06;;;;;;;3.78;3.50;;;24.00;47.40;;;;;;5004948;28;20178;-94
2021/01/02 12:00:32;;;;;;;4.55;4.25;;;23.90;45.70;;;;;;5002518;28;20216;-94
2021/01/02 12:03:02;;;;;;;3.95;3.65;;;23.50;45.90;;;;;;5001233;28;20188;-93
2021/01/02 12:05:31;;;;;;;3.00;2.90;;;23.30;46.10;;;;;;5001314;28;20206;-95
2021/01/02 12:07:56;;;;;;;3.60;3.40;;;23.10;47.30;;;;;;5000197;28;20178;-93
2021/01/02 12:10:25;;;;;;;3.30;3.10;;;23.10;47.10;;;;;;4999826;28;20176;-94
2021/01/02 12:12:57;;;;;;;3.10;2.90;;;23.20;45.60;;;;;;5000190;28;20173;-94
2021/01/02 12:15:29;;;;;;;3.55;3.08;;;23.30;48.60;;;;;;5003302;28;20228;-95
2021/01/02 12:18:10;;;;;;;2.92;2.83;;;23.40;47.10;;;;;;5004424;28;20190;-94
2021/01/02 12:20:35;;;;;;;3.10;2.83;;;23.40;45.60;;;;;;5004740;28;20188;-94
2021/01/02 12:23:01;;;;;;;2.83;2.70;;;23.30;46.20;;;;;;5005947;28;20182;-93
2021/01/02 12:25:27;;;;;;;3.10;2.83;;;23.00;47.00;;;;;;5006317;28;20224;-92
2021/01/02 12:27:58;;;;;;;4.07;3.78;;;22.60;48.60;;;;;;5002725;28;20563;-91
2021/01/02 12:30:29;;;;;;;3.35;3.15;;;22.20;48.60;;;;;;5006999;28;20662;-94
2021/01/02 12:32:56;;;;;;;3.90;3.40;;;21.70;49.40;;;;;;5010159;28;20174;-93
2021/01/02 12:35:31;;;;;;;5.05;3.60;;;21.50;48.20;;;;;;5014175;28;20182;-91
2021/01/02 12:37:57;;;;;;;3.83;3.10;;;21.10;47.80;;;;;;5009715;28;20208;-82
2021/01/02 12:40:23;;;;;;;2.33;2.22;;;21.00;49.80;;;;;;5015313;28;20181;-81
2021/01/02 12:42:49;;;;;;;2.58;2.47;;;21.10;47.80;;;;;;5027233;28;20869;-83
2021/01/02 12:45:21;;;;;;;2.95;2.78;;;21.30;49.20;;;;;;5012544;28;20188;-82
2021/01/02 12:47:47;;;;;;;2.42;2.30;;;21.30;47.80;;;;;;5010123;28;20185;-82
2021/01/02 12:50:13;;;;;;;2.45;2.22;;;21.40;49.90;;;;;;5043007;28;20180;-80
2021/01/02 12:52:39;;;;;;;2.75;2.60;;;21.60;48.80;;;;;;5029053;28;20292;-82
2021/01/02 12:55:06;;;;;;;3.13;2.92;;;21.70;47.80;;;;;;5030444;28;20619;-79